createdAt,value
2022-08-29T00:01:21.279Z,16.6
2022-08-29T00:06:27.481Z,16.5
2022-08-29T00:11:32.713Z,16.4
2022-08-29T00:16:39.009Z,16.4
2022-08-29T00:21:44.175Z,16.3
2022-08-29T00:26:50.389Z,16.2
2022-08-29T00:31:56.626Z,16.2
2022-08-29T00:37:02.812Z,16.1
2022-08-29T00:42:09.038Z,16.0
2022-08-29T00:47:15.244Z,15.9
2022-08-29T00:52:21.461Z,15.8
2022-08-29T00:57:27.678Z,15.7
2022-08-29T01:02:38.491Z,15.7
2022-08-29T01:07:40.828Z,15.6
2022-08-29T01:12:46.316Z,15.5
2022-08-29T01:17:52.521Z,15.5
2022-08-29T01:22:58.734Z,15.4
2022-08-29T01:28:04.949Z,15.3
2022-08-29T01:33:11.165Z,15.2
2022-08-29T01:38:17.364Z,15.2
2022-08-29T01:43:23.571Z,15.1
2022-08-29T01:48:29.777Z,15.0
2022-08-29T01:53:35.990Z,15.0
2022-08-29T01:58:42.192Z,14.9
2022-08-29T02:03:48.410Z,14.8
2022-08-29T02:08:53.641Z,14.7
2022-08-29T02:13:59.845Z,14.6
2022-08-29T02:19:06.062Z,14.6
2022-08-29T02:24:24.937Z,14.6
2022-08-29T02:29:18.472Z,14.5
2022-08-29T02:34:24.682Z,14.4
2022-08-29T02:44:37.098Z,14.3
2022-08-29T02:49:43.309Z,14.3
2022-08-29T02:54:49.527Z,14.3
2022-08-29T02:59:55.729Z,14.3
2022-08-29T03:05:01.941Z,14.2
2022-08-29T03:10:08.155Z,14.2
2022-08-29T03:15:14.349Z,14.1
2022-08-29T03:20:20.559Z,14.1
2022-08-29T03:25:26.767Z,14.0
2022-08-29T03:30:32.975Z,14.0
2022-08-29T03:35:39.242Z,14.0
2022-08-29T03:40:45.387Z,13.9
2022-08-29T03:45:51.595Z,13.9
2022-08-29T03:50:57.805Z,13.9
2022-08-29T03:56:04.020Z,13.9
2022-08-29T04:01:09.259Z,13.9
2022-08-29T04:06:15.457Z,14.0
2022-08-29T04:11:20.694Z,14.0
2022-08-29T04:16:30.463Z,14.0
2022-08-29T04:21:33.115Z,14.0
2022-08-29T04:26:39.328Z,13.9
2022-08-29T04:31:45.609Z,13.9
2022-08-29T04:36:51.737Z,13.9
2022-08-29T04:41:57.948Z,13.8
2022-08-29T04:47:04.159Z,13.8
2022-08-29T04:52:10.361Z,13.7
2022-08-29T04:57:16.573Z,13.6
2022-08-29T05:02:22.852Z,13.5
2022-08-29T05:07:28.985Z,13.5
2022-08-29T05:12:35.195Z,13.4
2022-08-29T05:17:41.406Z,13.4
2022-08-29T05:22:47.607Z,13.4
2022-08-29T05:27:53.816Z,13.4
2022-08-29T05:33:00.045Z,13.5
2022-08-29T05:38:14.759Z,13.5
2022-08-29T05:43:12.438Z,13.6
2022-08-29T05:48:18.649Z,13.7
2022-08-29T05:53:24.864Z,13.8
2022-08-29T05:58:30.090Z,13.9
2022-08-29T06:03:36.509Z,14.1
2022-08-29T06:08:41.537Z,14.3
2022-08-29T06:13:47.747Z,14.4
2022-08-29T06:18:53.959Z,14.6
2022-08-29T06:24:00.161Z,14.8
2022-08-29T06:29:06.368Z,15.0
2022-08-29T06:34:12.584Z,15.3
2022-08-29T06:39:18.799Z,15.5
2022-08-29T06:44:25.021Z,15.8
2022-08-29T06:49:31.221Z,16.1
2022-08-29T06:54:37.439Z,16.3
2022-08-29T06:59:43.657Z,16.6
2022-08-29T07:04:49.860Z,16.8
2022-08-29T07:09:56.081Z,16.9
2022-08-29T07:15:02.302Z,17.1
2022-08-29T07:20:08.497Z,17.3
2022-08-29T07:25:14.733Z,17.6
2022-08-29T07:30:20.920Z,17.9
2022-08-29T07:35:30.324Z,18.1
2022-08-29T07:40:33.375Z,18.3
2022-08-29T07:45:39.600Z,18.5
2022-08-29T07:50:45.765Z,18.7
2022-08-29T07:55:50.985Z,19.0
2022-08-29T08:00:57.193Z,19.3
2022-08-29T08:06:03.936Z,19.7
2022-08-29T08:11:08.645Z,20.2
2022-08-29T08:16:14.939Z,20.6
2022-08-29T08:21:21.051Z,20.9
2022-08-29T08:26:27.261Z,21.3
2022-08-29T08:31:33.506Z,21.6
2022-08-29T08:36:41.369Z,21.8
2022-08-29T08:41:45.887Z,22.0
2022-08-29T08:46:52.095Z,22.3
2022-08-29T08:51:58.312Z,22.4
2022-08-29T08:57:04.516Z,22.5
2022-08-29T09:02:10.790Z,22.6
2022-08-29T09:07:16.943Z,22.7
2022-08-29T09:12:23.154Z,22.8
2022-08-29T09:17:29.352Z,22.8
2022-08-29T09:22:35.559Z,22.8
2022-08-29T09:27:41.773Z,22.9
2022-08-29T09:32:47.981Z,22.8
2022-08-29T09:37:54.187Z,23.0
2022-08-29T09:43:00.394Z,23.2
2022-08-29T09:48:06.605Z,23.4
2022-08-29T09:53:25.108Z,23.4
2022-08-29T10:03:24.261Z,23.4
2022-08-29T10:08:30.478Z,23.4
2022-08-29T10:13:35.703Z,23.3
2022-08-29T10:18:41.911Z,23.3
2022-08-29T10:23:48.120Z,23.2
2022-08-29T10:28:54.367Z,23.2
2022-08-29T10:34:00.545Z,23.2
2022-08-29T10:39:06.754Z,23.3
2022-08-29T10:44:13.037Z,23.4
2022-08-29T10:49:19.170Z,23.7
2022-08-29T10:54:25.381Z,23.9
2022-08-29T10:59:31.592Z,24.0
2022-08-29T11:04:37.797Z,24.0
2022-08-29T11:09:44.009Z,24.0
2022-08-29T11:14:50.210Z,24.2
2022-08-29T11:19:56.426Z,24.4
2022-08-29T11:25:02.633Z,24.6
2022-08-29T11:30:08.847Z,24.7
2022-08-29T11:35:15.081Z,24.8
2022-08-29T11:40:47.365Z,24.9
2022-08-29T11:45:35.448Z,25.1
2022-08-29T11:50:33.686Z,25.2
2022-08-29T11:55:39.890Z,25.3
2022-08-29T12:00:45.127Z,25.6
2022-08-29T12:05:51.332Z,25.6
2022-08-29T12:10:56.570Z,25.5
2022-08-29T12:16:02.905Z,25.4
2022-08-29T12:21:09.017Z,25.4
2022-08-29T12:26:22.514Z,25.3
2022-08-29T12:31:21.493Z,25.4
2022-08-29T12:36:27.622Z,25.5
2022-08-29T12:41:33.825Z,25.6
2022-08-29T12:46:40.094Z,25.7
2022-08-29T12:51:46.250Z,25.7
2022-08-29T12:56:52.457Z,25.9
2022-08-29T13:01:58.697Z,25.9
2022-08-29T13:07:04.877Z,25.8
2022-08-29T13:12:11.084Z,25.7
2022-08-29T13:17:17.292Z,25.9
2022-08-29T13:22:23.501Z,26.0
2022-08-29T13:27:29.711Z,26.2
2022-08-29T13:32:35.928Z,26.3
2022-08-29T13:37:42.133Z,26.4
2022-08-29T13:42:48.347Z,26.5
2022-08-29T13:47:54.555Z,26.6
2022-08-29T13:53:00.761Z,26.6
2022-08-29T13:58:06.002Z,26.7
2022-08-29T14:03:12.362Z,26.8
2022-08-29T14:08:17.582Z,26.9
2022-08-29T14:13:23.660Z,26.9
2022-08-29T14:18:32.680Z,26.9
2022-08-29T14:23:36.092Z,26.8
2022-08-29T14:28:46.108Z,26.8
2022-08-29T14:33:51.673Z,26.8
2022-08-29T14:38:54.721Z,26.9
2022-08-29T14:44:00.937Z,27.1
2022-08-29T14:49:07.148Z,27.3
2022-08-29T14:54:13.362Z,27.2
2022-08-29T14:59:19.585Z,27.2
2022-08-29T15:04:37.092Z,27.3
2022-08-29T15:09:32.000Z,27.3
2022-08-29T15:14:38.214Z,27.4
2022-08-29T15:20:31.889Z,27.5
2022-08-29T15:24:50.664Z,27.6
2022-08-29T15:29:56.869Z,27.6
2022-08-29T15:35:02.108Z,27.6
2022-08-29T15:40:12.811Z,27.6
2022-08-29T15:45:14.537Z,27.6
2022-08-29T15:50:20.755Z,27.7
2022-08-29T15:55:26.006Z,27.7
2022-08-29T16:00:32.214Z,27.8
2022-08-29T16:05:37.463Z,27.8
2022-08-29T16:10:43.679Z,27.9
2022-08-29T16:15:49.975Z,27.9
2022-08-29T16:20:56.781Z,28.0
2022-08-29T16:26:02.586Z,0.0
2022-08-29T16:31:08.862Z,28.1
2022-08-29T16:36:14.997Z,28.2
2022-08-29T16:41:21.214Z,28.2
2022-08-29T16:46:27.487Z,28.2
2022-08-29T16:51:33.642Z,28.2
2022-08-29T16:56:39.937Z,28.3
2022-08-29T17:01:46.203Z,28.3
2022-08-29T17:06:52.401Z,28.4
2022-08-29T17:11:59.968Z,28.4
2022-08-29T17:17:04.871Z,28.3
2022-08-29T17:22:10.960Z,28.3
2022-08-29T17:27:21.266Z,28.2
2022-08-29T17:32:23.392Z,28.2
2022-08-29T17:37:29.609Z,28.1
2022-08-29T17:42:35.822Z,27.9
2022-08-29T17:47:42.276Z,0.0
2022-08-29T17:52:47.514Z,27.3
2022-08-29T17:57:53.727Z,27.0
2022-08-29T18:03:00.107Z,26.7
2022-08-29T18:08:06.148Z,26.3
2022-08-29T18:13:12.360Z,25.9
2022-08-29T18:18:18.722Z,25.6
2022-08-29T18:23:24.777Z,25.3
2022-08-29T18:28:30.990Z,25.1
2022-08-29T18:33:57.352Z,24.8
2022-08-29T18:38:43.408Z,24.6
2022-08-29T18:43:49.631Z,24.4
2022-08-29T18:48:55.825Z,24.1
2022-08-29T18:54:02.040Z,23.9
2022-08-29T18:59:08.240Z,23.6
2022-08-29T19:04:14.455Z,23.3
2022-08-29T19:09:20.656Z,23.1
2022-08-29T19:14:26.867Z,22.8
2022-08-29T19:19:33.079Z,22.6
2022-08-29T19:24:39.287Z,22.5
2022-08-29T19:29:45.495Z,22.3
2022-08-29T19:34:51.698Z,22.1
2022-08-29T19:39:57.000Z,22.0
2022-08-29T19:45:03.369Z,21.9
2022-08-29T19:50:08.387Z,21.7
2022-08-29T19:55:14.593Z,21.6
2022-08-29T20:00:19.831Z,21.4
2022-08-29T20:05:26.039Z,21.3
2022-08-29T20:10:32.248Z,21.2
2022-08-29T20:15:38.462Z,21.0
2022-08-29T20:20:44.661Z,20.9
2022-08-29T20:25:50.879Z,20.8
2022-08-29T20:30:57.083Z,20.6
2022-08-29T20:36:03.295Z,20.5
2022-08-29T20:41:09.501Z,20.4
2022-08-29T20:46:15.737Z,20.4
2022-08-29T20:51:21.914Z,20.4
2022-08-29T20:56:28.121Z,20.4
2022-08-29T21:01:34.417Z,20.4
2022-08-29T21:06:40.541Z,20.4
2022-08-29T21:11:46.751Z,20.5
2022-08-29T21:16:52.958Z,20.6
2022-08-29T21:21:59.162Z,20.6
2022-08-29T21:27:05.372Z,20.7
2022-08-29T21:32:11.577Z,20.7
2022-08-29T21:37:17.789Z,20.7
2022-08-29T21:42:23.997Z,20.7
2022-08-29T21:47:29.233Z,20.6
2022-08-29T21:52:35.444Z,20.6
2022-08-29T21:57:40.685Z,20.5
2022-08-29T22:02:46.940Z,20.5
2022-08-29T22:07:53.096Z,20.4
2022-08-29T22:12:59.309Z,20.3
2022-08-29T22:18:05.518Z,20.3
2022-08-29T22:23:11.725Z,20.2
2022-08-29T22:28:17.941Z,20.2
2022-08-29T22:33:24.144Z,20.1
2022-08-29T22:38:30.357Z,20.1
2022-08-29T22:43:36.557Z,20.0
2022-08-29T22:48:42.767Z,20.0
2022-08-29T22:53:48.984Z,20.0
2022-08-29T22:58:55.183Z,19.9
2022-08-29T23:04:01.397Z,19.9
2022-08-29T23:09:07.598Z,19.8
2022-08-29T23:14:13.806Z,19.8
2022-08-29T23:19:20.022Z,19.8
2022-08-29T23:24:26.238Z,19.7
2022-08-29T23:29:32.437Z,19.7
2022-08-29T23:34:38.639Z,19.7
2022-08-29T23:39:44.855Z,19.7
2022-08-29T23:44:50.089Z,19.6
2022-08-29T23:49:56.296Z,19.6
2022-08-29T23:55:02.503Z,19.5
